Time;durP1;ratioP1;P1;durP2;ratioP2;P2;SDS_P1;SDS_P2;PMS_P1;PMS_P2;Temp;Humidity;BMP_temperature;BMP_pressure;BME280_temperature;BME280_humidity;BME280_pressure;Samples;Min_cycle;Max_cycle;Signal;HPM_P1;HPM_P2
2023/12/11 00:00:05;;;;;;;0.20;0.20;;;12.30;99.90;;;;;;5049613;28;20503;-88
2023/12/11 00:02:31;;;;;;;0.17;0.17;;;12.40;99.90;;;;;;5032550;28;20120;-88
2023/12/11 00:04:57;;;;;;;0.10;0.10;;;12.40;99.90;;;;;;5048752;28;20061;-88
2023/12/11 00:07:22;;;;;;;0.10;0.10;;;12.40;99.90;;;;;;5050083;28;20059;-89
2023/12/11 00:09:48;;;;;;;0.10;0.10;;;12.40;99.90;;;;;;5033029;28;20020;-89
2023/12/11 00:12:14;;;;;;;0.10;0.10;;;12.50;99.90;;;;;;5032654;28;20044;-89
2023/12/11 00:14:39;;;;;;;0.00;0.00;;;12.40;99.90;;;;;;5031819;28;20021;-88
2023/12/11 00:17:05;;;;;;;0.00;0.00;;;12.50;99.90;;;;;;5049246;28;20086;-88
2023/12/11 00:19:31;;;;;;;0.00;0.00;;;12.50;99.90;;;;;;5047870;28;20036;-87
2023/12/11 00:21:56;;;;;;;0.10;0.10;;;12.50;99.90;;;;;;5028011;28;20032;-89
2023/12/11 00:24:22;;;;;;;0.10;0.10;;;12.40;99.90;;;;;;5031110;28;20029;-86
2023/12/11 00:26:48;;;;;;;0.00;0.00;;;12.50;99.90;;;;;;5048657;28;20420;-87
2023/12/11 00:29:14;;;;;;;0.10;0.10;;;12.50;99.90;;;;;;5047835;28;20487;-87
2023/12/11 00:31:40;;;;;;;0.00;0.00;;;12.50;99.90;;;;;;5062842;28;20060;-87
2023/12/11 00:34:05;;;;;;;0.10;0.10;;;12.40;99.90;;;;;;5033264;28;20087;-91
2023/12/11 00:36:31;;;;;;;0.10;0.10;;;12.60;99.90;;;;;;5034734;28;20123;-90
2023/12/11 00:38:57;;;;;;;0.70;0.70;;;12.60;99.90;;;;;;5034430;28;20036;-92
2023/12/11 00:41:22;;;;;;;0.13;0.13;;;12.60;99.90;;;;;;5035523;28;20029;-92
2023/12/11 00:43:49;;;;;;;0.10;0.10;;;12.60;99.90;;;;;;5032842;28;20412;-89
2023/12/11 00:46:16;;;;;;;0.00;0.00;;;12.60;99.90;;;;;;5047045;28;20028;-89
2023/12/11 00:48:42;;;;;;;;;;;12.70;99.90;;;;;;5046325;28;20034;-90
2023/12/11 00:51:16;;;;;;;0.00;0.00;;;12.70;99.90;;;;;;5031891;28;20447;-88
2023/12/11 00:53:42;;;;;;;0.10;0.10;;;12.60;99.90;;;;;;5031657;28;20538;-91
2023/12/11 00:56:08;;;;;;;5.60;3.63;;;12.60;99.90;;;;;;5033018;28;20088;-91
2023/12/11 00:58:33;;;;;;;0.00;0.00;;;12.60;99.90;;;;;;5032941;28;20032;-90
2023/12/11 01:00:59;;;;;;;0.00;0.00;;;12.70;99.90;;;;;;5033170;28;20123;-92
2023/12/11 01:03:25;;;;;;;0.20;0.20;;;12.70;99.90;;;;;;5035096;28;20029;-89
2023/12/11 01:05:50;;;;;;;0.07;0.07;;;12.70;99.90;;;;;;5048483;28;20021;-89
2023/12/11 01:08:16;;;;;;;0.00;0.00;;;12.70;99.90;;;;;;5049524;28;20029;-90
2023/12/11 01:10:42;;;;;;;0.10;0.10;;;12.70;99.90;;;;;;5065219;28;20041;-90
2023/12/11 01:13:07;;;;;;;0.30;0.30;;;12.70;99.90;;;;;;5037022;28;20053;-90
2023/12/11 01:15:33;;;;;;;0.00;0.00;;;12.70;99.90;;;;;;5051838;28;20029;-90
2023/12/11 01:17:59;;;;;;;0.10;0.10;;;12.70;99.90;;;;;;5049862;28;20114;-90
2023/12/11 01:20:24;;;;;;;0.00;0.00;;;12.70;99.90;;;;;;5031674;28;20050;-89
2023/12/11 01:22:50;;;;;;;0.10;0.10;;;12.70;99.90;;;;;;5025869;28;20051;-88
2023/12/11 01:25:15;;;;;;;0.10;0.10;;;12.70;99.90;;;;;;5044882;28;20178;-87
2023/12/11 01:27:41;;;;;;;0.10;0.10;;;12.80;99.90;;;;;;5034934;28;20044;-88
2023/12/11 01:30:07;;;;;;;0.10;0.10;;;12.70;99.90;;;;;;5047525;28;20041;-88
2023/12/11 01:32:33;;;;;;;0.00;0.00;;;12.70;99.90;;;;;;5030065;28;20025;-87
2023/12/11 01:34:59;;;;;;;0.00;0.00;;;12.70;99.90;;;;;;5029992;28;20409;-87
2023/12/11 01:37:25;;;;;;;0.05;0.05;;;12.70;99.90;;;;;;5047885;28;20033;-88
2023/12/11 01:39:50;;;;;;;0.00;0.00;;;12.70;99.90;;;;;;5033244;28;20040;-88
2023/12/11 01:42:17;;;;;;;0.00;0.00;;;12.70;99.90;;;;;;5047845;28;20110;-89
2023/12/11 01:44:42;;;;;;;0.10;0.10;;;12.80;99.90;;;;;;5048762;28;20083;-91
2023/12/11 01:47:08;;;;;;;1.47;1.40;;;12.80;99.90;;;;;;5032793;28;20028;-90
2023/12/11 01:49:35;;;;;;;0.07;0.07;;;12.80;99.90;;;;;;5032528;28;20037;-90
2023/12/11 01:52:01;;;;;;;;;;;12.80;99.90;;;;;;5033638;28;20060;-91
2023/12/11 01:54:26;;;;;;;0.10;0.10;;;12.80;99.90;;;;;;5033337;28;20018;-94
2023/12/11 01:56:52;;;;;;;0.00;0.00;;;12.80;99.90;;;;;;5026128;28;20068;-93
2023/12/11 01:59:18;;;;;;;0.00;0.00;;;12.80;99.90;;;;;;5030675;28;20044;-90
2023/12/11 02:01:44;;;;;;;0.00;0.00;;;12.80;99.90;;;;;;5031361;28;20121;-90
2023/12/11 02:04:10;;;;;;;0.00;0.00;;;12.80;99.90;;;;;;5034393;28;20120;-90
2023/12/11 02:06:36;;;;;;;0.10;0.10;;;12.80;99.90;;;;;;5030355;28;20028;-89
2023/12/11 02:09:02;;;;;;;0.00;0.00;;;12.80;99.90;;;;;;5029882;28;20762;-88
2023/12/11 02:11:27;;;;;;;0.00;0.00;;;12.80;99.90;;;;;;5031237;28;20025;-88
2023/12/11 02:13:53;;;;;;;0.00;0.00;;;12.80;99.90;;;;;;5063342;28;21149;-93
2023/12/11 02:16:19;;;;;;;0.00;0.00;;;12.80;99.90;;;;;;5032948;28;20088;-91
2023/12/11 02:18:44;;;;;;;0.00;0.00;;;12.80;99.90;;;;;;5052046;28;20590;-89
2023/12/11 02:21:13;;;;;;;0.00;0.00;;;12.80;99.90;;;;;;5028632;28;20037;-89
2023/12/11 02:23:51;;;;;;;0.08;0.08;;;12.80;99.90;;;;;;5027175;28;20107;-89
2023/12/11 02:26:18;;;;;;;0.10;0.10;;;12.80;99.90;;;;;;5044973;28;20025;-89
2023/12/11 02:28:44;;;;;;;0.00;0.00;;;12.80;99.90;;;;;;5046444;28;20027;-87
2023/12/11 02:31:10;;;;;;;0.10;0.10;;;12.70;99.90;;;;;;5027732;28;20068;-90
2023/12/11 02:33:36;;;;;;;0.00;0.00;;;12.80;99.90;;;;;;5028197;28;20033;-89
2023/12/11 02:36:02;;;;;;;0.00;0.00;;;12.70;99.90;;;;;;5028431;28;20123;-88
2023/12/11 02:38:28;;;;;;;0.00;0.00;;;12.70;99.90;;;;;;5045916;28;20120;-88
2023/12/11 02:40:54;;;;;;;2.63;2.00;;;12.80;99.90;;;;;;5046611;28;20056;-90
2023/12/11 02:43:19;;;;;;;0.10;0.10;;;12.80;99.90;;;;;;5031070;28;20155;-91
2023/12/11 02:45:45;;;;;;;0.00;0.00;;;12.70;99.90;;;;;;5048433;28;20088;-90
2023/12/11 02:48:11;;;;;;;0.00;0.00;;;12.70;99.90;;;;;;5033795;28;20108;-89
2023/12/11 02:50:37;;;;;;;0.00;0.00;;;12.70;99.90;;;;;;5033492;28;20110;-89
2023/12/11 02:53:04;;;;;;;0.00;0.00;;;12.70;99.90;;;;;;5030743;28;20044;-90
2023/12/11 02:55:30;;;;;;;0.00;0.00;;;12.70;99.90;;;;;;5047766;28;20131;-86
2023/12/11 02:57:58;;;;;;;0.00;0.00;;;12.70;99.90;;;;;;5046946;28;20048;-87
2023/12/11 03:00:24;;;;;;;0.00;0.00;;;12.80;99.90;;;;;;5047986;28;20051;-90
2023/12/11 03:02:49;;;;;;;0.00;0.00;;;12.80;99.90;;;;;;5037222;28;20059;-89
2023/12/11 03:05:15;;;;;;;0.00;0.00;;;12.70;99.90;;;;;;5047175;28;20032;-88
2023/12/11 03:07:41;;;;;;;0.00;0.00;;;12.70;99.90;;;;;;5049973;28;20033;-90
2023/12/11 03:10:08;;;;;;;0.00;0.00;;;12.80;99.90;;;;;;5035856;28;20106;-88
2023/12/11 03:12:34;;;;;;;0.00;0.00;;;12.80;99.90;;;;;;5032828;28;20041;-88
2023/12/11 03:14:59;;;;;;;0.00;0.00;;;12.80;99.90;;;;;;5050246;28;20029;-88
2023/12/11 03:17:25;;;;;;;0.00;0.00;;;12.80;99.90;;;;;;5032796;28;20037;-89
2023/12/11 03:19:52;;;;;;;0.00;0.00;;;12.80;99.90;;;;;;5032609;28;20546;-88
2023/12/11 03:22:18;;;;;;;;;;;12.80;99.90;;;;;;5031276;28;20132;-89
2023/12/11 03:24:43;;;;;;;0.00;0.00;;;12.80;99.90;;;;;;5030874;28;19992;-88
2023/12/11 03:27:09;;;;;;;0.10;0.10;;;12.70;99.90;;;;;;5029269;28;20060;-88
2023/12/11 03:29:35;;;;;;;0.00;0.00;;;12.80;99.90;;;;;;5031687;28;21652;-89
2023/12/11 03:32:01;;;;;;;0.10;0.10;;;12.80;99.90;;;;;;5036034;28;20028;-89
2023/12/11 03:34:27;;;;;;;0.10;0.10;;;12.80;99.90;;;;;;5033346;28;20298;-91
2023/12/11 03:36:52;;;;;;;0.00;0.00;;;12.80;99.90;;;;;;5032533;28;20033;-90
2023/12/11 03:39:18;;;;;;;0.00;0.00;;;12.80;99.90;;;;;;5049540;28;20620;-91
2023/12/11 03:41:44;;;;;;;0.00;0.00;;;12.80;99.90;;;;;;5034989;28;20029;-89
2023/12/11 03:44:10;;;;;;;0.00;0.00;;;12.80;99.90;;;;;;5031507;28;20559;-91
2023/12/11 03:46:36;;;;;;;0.00;0.00;;;12.80;99.90;;;;;;5049057;28;20059;-90
2023/12/11 03:49:02;;;;;;;0.03;0.03;;;12.80;99.90;;;;;;5048679;28;20029;-90
2023/12/11 03:51:28;;;;;;;0.00;0.00;;;12.80;99.90;;;;;;5040150;28;20078;-93
2023/12/11 03:53:53;;;;;;;0.00;0.00;;;12.80;99.90;;;;;;5036627;28;20267;-94
2023/12/11 03:56:19;;;;;;;0.00;0.00;;;12.70;99.90;;;;;;5036297;28;20060;-89
2023/12/11 03:58:44;;;;;;;0.10;0.10;;;12.70;99.90;;;;;;5031692;28;20028;-89
2023/12/11 04:01:10;;;;;;;0.00;0.00;;;12.70;99.90;;;;;;5031507;28;20029;-91
2023/12/11 04:03:36;;;;;;;0.00;0.00;;;12.70;99.90;;;;;;5050709;28;20847;-89
2023/12/11 04:06:02;;;;;;;0.00;0.00;;;12.70;99.90;;;;;;5031516;28;20036;-88
2023/12/11 04:08:28;;;;;;;;;;;12.70;99.90;;;;;;5026557;28;20032;-86
2023/12/11 04:10:54;;;;;;;0.00;0.00;;;12.70;99.90;;;;;;5048684;28;20654;-86
2023/12/11 04:13:20;;;;;;;0.00;0.00;;;12.70;99.90;;;;;;5030964;28;20444;-87
2023/12/11 04:15:45;;;;;;;0.00;0.00;;;12.80;99.90;;;;;;5031427;28;20037;-89
2023/12/11 04:18:11;;;;;;;0.00;0.00;;;12.70;99.90;;;;;;5032936;28;21138;-87
2023/12/11 04:20:37;;;;;;;0.00;0.00;;;12.70;99.90;;;;;;5049509;28;20028;-88
2023/12/11 04:23:02;;;;;;;0.00;0.00;;;12.70;99.90;;;;;;5048670;28;20078;-91
2023/12/11 04:25:28;;;;;;;0.10;0.10;;;12.70;99.90;;;;;;5036862;28;20063;-93
2023/12/11 04:27:54;;;;;;;0.00;0.00;;;12.80;99.90;;;;;;5036659;28;20076;-91
2023/12/11 04:30:19;;;;;;;0.10;0.10;;;12.80;99.90;;;;;;5030492;28;20056;-90
2023/12/11 04:32:45;;;;;;;0.00;0.00;;;12.80;99.90;;;;;;5030919;28;20416;-91
2023/12/11 04:35:10;;;;;;;0.00;0.00;;;12.70;99.90;;;;;;5030484;28;20071;-91
2023/12/11 04:37:36;;;;;;;0.10;0.10;;;12.70;99.90;;;;;;5030080;28;20423;-90
2023/12/11 04:40:03;;;;;;;0.50;0.50;;;12.70;99.90;;;;;;5033708;28;20101;-96
2023/12/11 04:42:28;;;;;;;0.00;0.00;;;12.80;99.90;;;;;;5034561;28;20492;-93
2023/12/11 04:44:54;;;;;;;0.10;0.10;;;12.70;99.90;;;;;;5033413;28;20025;-93
2023/12/11 04:47:20;;;;;;;0.07;0.07;;;12.70;99.90;;;;;;5033040;28;20712;-96
2023/12/11 04:49:46;;;;;;;0.00;0.00;;;12.80;99.90;;;;;;5034507;28;20030;-96
2023/12/11 04:52:11;;;;;;;0.00;0.00;;;12.80;99.90;;;;;;5035016;28;20060;-94
2023/12/11 04:54:37;;;;;;;0.00;0.00;;;12.80;99.90;;;;;;5032357;28;20021;-92
2023/12/11 04:57:03;;;;;;;0.00;0.00;;;12.80;99.90;;;;;;5030877;28;20753;-92
2023/12/11 04:59:29;;;;;;;0.00;0.00;;;12.80;99.90;;;;;;5027236;28;20056;-86
2023/12/11 05:01:54;;;;;;;0.00;0.00;;;12.80;99.90;;;;;;5027733;28;20027;-86
2023/12/11 05:04:20;;;;;;;0.53;0.53;;;12.80;99.90;;;;;;5029004;28;20029;-87
2023/12/11 05:06:45;;;;;;;0.10;0.10;;;12.80;99.90;;;;;;5026856;28;20026;-86
2023/12/11 05:09:11;;;;;;;0.13;0.13;;;12.80;99.90;;;;;;5026213;28;20044;-87
2023/12/11 05:11:37;;;;;;;0.20;0.20;;;12.80;99.90;;;;;;5026902;28;20053;-85
2023/12/11 05:14:02;;;;;;;0.20;0.20;;;12.80;99.90;;;;;;5024195;28;20026;-84
2023/12/11 05:16:28;;;;;;;0.10;0.10;;;12.80;99.90;;;;;;5026530;28;20029;-89
2023/12/11 05:18:54;;;;;;;0.00;0.00;;;12.80;99.90;;;;;;5027415;28;20025;-88
2023/12/11 05:21:19;;;;;;;0.10;0.10;;;12.80;99.90;;;;;;5026245;28;20910;-85
2023/12/11 05:23:45;;;;;;;0.10;0.10;;;12.80;99.90;;;;;;5024874;28;20566;-86
2023/12/11 05:26:17;;;;;;;0.00;0.00;;;12.80;99.90;;;;;;5025943;28;20124;-86
2023/12/11 05:28:43;;;;;;;0.00;0.00;;;12.80;99.90;;;;;;5022696;28;20033;-86
2023/12/11 05:31:08;;;;;;;0.00;0.00;;;12.80;99.90;;;;;;5040145;28;20544;-87
2023/12/11 05:33:34;;;;;;;0.07;0.07;;;12.80;99.90;;;;;;5046844;28;20484;-89
2023/12/11 05:36:00;;;;;;;0.00;0.00;;;12.80;99.90;;;;;;5032287;28;20571;-89
2023/12/11 05:38:25;;;;;;;0.10;0.10;;;12.80;99.90;;;;;;5029236;28;20695;-91
2023/12/11 05:40:51;;;;;;;0.00;0.00;;;12.80;99.90;;;;;;5045267;28;20029;-92
2023/12/11 05:43:17;;;;;;;0.00;0.00;;;12.80;99.90;;;;;;5036055;28;20025;-94
2023/12/11 05:45:42;;;;;;;0.03;0.03;;;12.80;99.90;;;;;;5037981;28;20028;-91
2023/12/11 05:48:08;;;;;;;0.00;0.00;;;12.80;99.90;;;;;;5032798;28;20055;-93
2023/12/11 05:50:34;;;;;;;0.10;0.10;;;12.80;99.90;;;;;;5047589;28;20690;-90
2023/12/11 05:52:59;;;;;;;0.13;0.13;;;12.80;99.90;;;;;;5045776;28;20060;-91
2023/12/11 05:55:25;;;;;;;0.00;0.00;;;12.80;99.90;;;;;;5032633;28;20131;-90
2023/12/11 05:57:51;;;;;;;0.20;0.20;;;12.80;99.90;;;;;;5029430;28;20891;-86
2023/12/11 06:00:17;;;;;;;0.00;0.00;;;12.70;99.90;;;;;;5033326;28;20063;-86
2023/12/11 06:02:42;;;;;;;0.13;0.13;;;12.80;99.90;;;;;;5041368;28;20067;-84
2023/12/11 06:05:08;;;;;;;0.00;0.00;;;12.80;99.90;;;;;;5029808;28;20068;-86
2023/12/11 06:07:35;;;;;;;0.23;0.23;;;12.80;99.90;;;;;;5029953;28;20039;-90
2023/12/11 06:10:01;;;;;;;0.93;0.60;;;12.80;99.90;;;;;;5030930;28;20133;-86
2023/12/11 06:12:26;;;;;;;0.53;0.53;;;12.80;99.90;;;;;;5047086;28;20104;-89
2023/12/11 06:14:52;;;;;;;0.00;0.00;;;12.80;99.90;;;;;;5046865;28;20120;-86
2023/12/11 06:17:18;;;;;;;0.10;0.10;;;12.80;99.90;;;;;;5047604;28;20060;-86
2023/12/11 06:19:43;;;;;;;0.17;0.17;;;12.80;99.90;;;;;;5042430;28;20068;-86
2023/12/11 06:22:09;;;;;;;0.43;0.43;;;12.80;99.90;;;;;;5031978;28;20021;-86
2023/12/11 06:24:37;;;;;;;0.20;0.20;;;12.80;99.90;;;;;;5027924;28;20103;-85
2023/12/11 06:27:03;;;;;;;0.20;0.20;;;12.80;99.90;;;;;;5046618;28;20082;-83
2023/12/11 06:29:28;;;;;;;0.50;0.50;;;12.80;99.90;;;;;;5028520;28;20032;-83
2023/12/11 06:31:54;;;;;;;0.10;0.10;;;12.80;99.90;;;;;;5046295;28;20061;-85
2023/12/11 06:34:20;;;;;;;0.00;0.00;;;12.80;99.90;;;;;;5030396;28;20037;-84
2023/12/11 06:36:45;;;;;;;0.37;0.37;;;12.80;99.90;;;;;;5046699;28;20274;-84
2023/12/11 06:39:11;;;;;;;0.00;0.00;;;12.80;99.90;;;;;;5046110;28;20033;-83
2023/12/11 06:41:37;;;;;;;0.43;0.43;;;12.80;99.90;;;;;;5046245;28;20029;-83
2023/12/11 06:44:03;;;;;;;0.10;0.10;;;12.80;99.90;;;;;;5028265;28;20104;-83
2023/12/11 06:46:29;;;;;;;0.00;0.00;;;12.80;99.90;;;;;;5046533;28;20086;-83
2023/12/11 06:48:58;;;;;;;0.00;0.00;;;12.80;99.90;;;;;;5030828;28;20062;-85
2023/12/11 06:51:27;;;;;;;0.10;0.10;;;12.80;99.90;;;;;;5025711;28;20360;-85
2023/12/11 06:53:58;;;;;;;0.10;0.10;;;12.80;99.90;;;;;;5061958;28;20029;-84
2023/12/11 06:56:24;;;;;;;0.00;0.00;;;12.80;99.90;;;;;;5045153;28;20033;-85
2023/12/11 06:58:50;;;;;;;0.10;0.10;;;12.80;99.90;;;;;;5046051;28;20522;-84
2023/12/11 07:01:16;;;;;;;0.10;0.10;;;12.80;99.90;;;;;;5037250;28;20041;-83
2023/12/11 07:03:42;;;;;;;0.10;0.10;;;12.80;99.90;;;;;;5029535;28;20033;-84
2023/12/11 07:06:09;;;;;;;0.00;0.00;;;12.80;99.90;;;;;;5046252;28;20530;-83
2023/12/11 07:08:36;;;;;;;0.00;0.00;;;12.80;99.90;;;;;;5061523;28;20033;-84
2023/12/11 07:11:01;;;;;;;1.08;1.08;;;12.80;99.90;;;;;;5046154;28;20138;-84
2023/12/11 07:13:27;;;;;;;0.00;0.00;;;12.80;99.90;;;;;;5045780;28;20061;-84
2023/12/11 07:15:52;;;;;;;0.00;0.00;;;12.80;99.90;;;;;;5045934;28;20417;-83
2023/12/11 07:18:18;;;;;;;0.00;0.00;;;12.80;99.90;;;;;;5046164;28;20037;-83
2023/12/11 07:20:44;;;;;;;0.00;0.00;;;12.80;99.90;;;;;;5045675;28;20029;-86
2023/12/11 07:23:10;;;;;;;0.10;0.10;;;12.80;99.90;;;;;;5028192;28;20538;-83
2023/12/11 07:25:37;;;;;;;2.17;1.70;;;12.80;99.90;;;;;;5061843;28;20025;-83
2023/12/11 07:28:03;;;;;;;0.10;0.10;;;12.80;99.90;;;;;;5045643;28;20556;-82
2023/12/11 07:30:28;;;;;;;0.10;0.10;;;12.80;99.90;;;;;;5029789;28;20052;-83
2023/12/11 07:32:54;;;;;;;0.10;0.10;;;12.80;99.90;;;;;;5030131;28;20038;-83
2023/12/11 07:35:20;;;;;;;0.07;0.07;;;12.80;99.90;;;;;;5047704;28;20040;-83
2023/12/11 07:37:45;;;;;;;0.10;0.10;;;12.80;99.90;;;;;;5028924;28;20480;-83
2023/12/11 07:40:11;;;;;;;0.10;0.10;;;12.80;99.90;;;;;;5046785;28;21151;-84
2023/12/11 07:42:37;;;;;;;0.10;0.10;;;12.80;99.90;;;;;;5028688;28;20031;-83
2023/12/11 07:45:06;;;;;;;0.10;0.10;;;12.70;99.90;;;;;;5061456;28;20037;-84
2023/12/11 07:47:32;;;;;;;0.00;0.00;;;12.80;99.90;;;;;;5046687;28;20385;-84
2023/12/11 07:50:00;;;;;;;0.10;0.10;;;12.80;99.90;;;;;;5028816;28;20040;-84
2023/12/11 07:52:31;;;;;;;0.10;0.10;;;12.70;99.90;;;;;;5028891;28;20033;-84
2023/12/11 07:55:00;;;;;;;0.20;0.20;;;12.80;99.90;;;;;;5049496;28;20029;-86
2023/12/11 07:57:26;;;;;;;0.10;0.10;;;12.70;99.90;;;;;;5031637;28;20045;-84
2023/12/11 07:59:53;;;;;;;0.00;0.00;;;12.80;99.90;;;;;;5049595;28;20103;-84
2023/12/11 08:02:19;;;;;;;0.00;0.00;;;12.80;99.90;;;;;;5048868;28;20107;-85
2023/12/11 08:04:44;;;;;;;0.00;0.00;;;12.80;99.90;;;;;;5049199;28;20025;-84
2023/12/11 08:07:11;;;;;;;0.00;0.00;;;12.80;99.90;;;;;;5049429;28;20032;-85
2023/12/11 08:09:37;;;;;;;0.10;0.10;;;12.70;99.90;;;;;;5031316;28;20036;-86
2023/12/11 08:12:04;;;;;;;0.00;0.00;;;12.80;99.90;;;;;;5049781;28;20033;-85
2023/12/11 08:14:30;;;;;;;0.00;0.00;;;12.70;99.90;;;;;;5031471;28;20106;-85
2023/12/11 08:16:55;;;;;;;0.00;0.00;;;12.70;99.90;;;;;;5065254;28;20033;-85
2023/12/11 08:19:21;;;;;;;0.27;0.27;;;12.70;99.90;;;;;;5049087;28;20021;-85
2023/12/11 08:21:46;;;;;;;0.00;0.00;;;12.70;99.90;;;;;;5048386;28;20071;-85
2023/12/11 08:24:12;;;;;;;0.10;0.10;;;12.70;99.90;;;;;;5049617;28;20495;-85
2023/12/11 08:26:38;;;;;;;0.00;0.00;;;12.70;99.90;;;;;;5063934;28;20037;-85
2023/12/11 08:29:04;;;;;;;4.87;0.97;;;12.70;99.90;;;;;;5030474;28;20100;-85
2023/12/11 08:31:30;;;;;;;0.00;0.00;;;12.80;99.90;;;;;;5034195;28;20061;-85
2023/12/11 08:33:56;;;;;;;0.00;0.00;;;12.70;99.90;;;;;;5049587;28;20029;-84
2023/12/11 08:36:22;;;;;;;0.00;0.00;;;12.70;99.90;;;;;;5064626;28;20848;-83
2023/12/11 08:38:48;;;;;;;0.00;0.00;;;12.60;99.90;;;;;;5049213;28;20490;-84
2023/12/11 08:41:13;;;;;;;0.00;0.00;;;12.60;99.90;;;;;;5031207;28;20052;-85
2023/12/11 08:43:39;;;;;;;0.30;0.30;;;12.60;99.90;;;;;;5030964;28;20037;-84
2023/12/11 08:46:05;;;;;;;0.00;0.00;;;12.70;99.90;;;;;;5030522;28;20045;-84
2023/12/11 08:48:31;;;;;;;0.10;0.10;;;12.70;99.90;;;;;;5048845;28;20025;-84
2023/12/11 08:50:56;;;;;;;0.10;0.10;;;12.70;99.90;;;;;;5048982;28;20029;-84
2023/12/11 08:53:23;;;;;;;0.40;0.40;;;12.70;99.90;;;;;;5048767;28;20033;-84
2023/12/11 08:55:49;;;;;;;0.30;0.30;;;12.70;99.90;;;;;;5048595;28;20056;-84
2023/12/11 08:58:16;;;;;;;0.10;0.10;;;12.70;99.90;;;;;;5048814;28;20037;-84
2023/12/11 09:00:42;;;;;;;0.10;0.10;;;12.60;99.90;;;;;;5031986;28;20139;-85
2023/12/11 09:03:08;;;;;;;0.20;0.20;;;12.70;99.90;;;;;;5032405;28;20476;-85
2023/12/11 09:05:34;;;;;;;0.10;0.10;;;12.70;99.90;;;;;;5049182;28;20094;-85
2023/12/11 09:07:59;;;;;;;0.10;0.10;;;12.60;99.90;;;;;;5031932;28;20028;-86
2023/12/11 09:10:25;;;;;;;0.00;0.00;;;12.60;99.90;;;;;;5045824;28;20033;-85
2023/12/11 09:12:52;;;;;;;0.00;0.00;;;12.60;99.90;;;;;;5048176;28;20117;-85
2023/12/11 09:15:19;;;;;;;0.08;0.08;;;12.60;99.90;;;;;;5030675;28;20051;-85
2023/12/11 09:17:45;;;;;;;0.00;0.00;;;12.60;99.90;;;;;;5048072;28;20021;-85
2023/12/11 09:20:10;;;;;;;0.00;0.00;;;12.60;99.90;;;;;;5048186;28;20063;-86
2023/12/11 09:22:43;;;;;;;0.00;0.00;;;12.60;99.90;;;;;;5045094;28;20025;-85
2023/12/11 09:25:09;;;;;;;0.10;0.10;;;12.60;99.90;;;;;;5047537;28;20146;-85
2023/12/11 09:27:35;;;;;;;0.00;0.00;;;12.60;99.90;;;;;;5048210;28;20025;-84
2023/12/11 09:30:01;;;;;;;0.00;0.00;;;12.60;99.90;;;;;;5029864;28;20048;-86
2023/12/11 09:32:28;;;;;;;0.13;0.13;;;12.60;99.90;;;;;;5030142;28;20122;-86
2023/12/11 09:34:53;;;;;;;0.10;0.10;;;12.60;99.90;;;;;;5047535;28;20040;-86
2023/12/11 09:37:19;;;;;;;0.10;0.10;;;12.60;99.90;;;;;;5029518;28;20028;-86
2023/12/11 09:39:47;;;;;;;0.00;0.00;;;12.60;99.90;;;;;;5047140;28;20025;-86
2023/12/11 09:42:14;;;;;;;0.08;0.08;;;12.60;99.90;;;;;;5029841;28;20487;-86
2023/12/11 09:44:47;;;;;;;0.38;0.38;;;12.60;99.90;;;;;;5029641;28;20053;-86
2023/12/11 09:47:31;;;;;;;0.10;0.10;;;12.60;99.90;;;;;;5047261;28;20078;-86
2023/12/11 09:49:57;;;;;;;0.00;0.00;;;12.60;99.90;;;;;;5046386;28;20670;-85
2023/12/11 09:52:23;;;;;;;0.10;0.10;;;12.60;99.90;;;;;;5047626;28;20108;-85
2023/12/11 09:54:49;;;;;;;0.00;0.00;;;12.60;99.90;;;;;;5047203;28;20029;-84
2023/12/11 09:57:15;;;;;;;0.10;0.10;;;12.60;99.90;;;;;;5028923;28;20128;-86
2023/12/11 09:59:42;;;;;;;0.10;0.10;;;12.60;99.90;;;;;;5028823;28;20037;-84
2023/12/11 10:02:15;;;;;;;0.08;0.08;;;12.60;99.90;;;;;;5043103;28;20066;-85
2023/12/11 10:05:10;;;;;;;0.10;0.10;;;12.60;99.90;;;;;;5029483;28;20427;-85
2023/12/11 10:07:40;;;;;;;0.20;0.20;;;12.60;99.90;;;;;;5042807;28;20392;-85
2023/12/11 10:10:23;;;;;;;0.00;0.00;;;12.60;99.90;;;;;;5029249;28;20043;-85
2023/12/11 10:12:49;;;;;;;0.00;0.00;;;12.60;99.90;;;;;;5029278;28;20029;-85
2023/12/11 10:15:32;;;;;;;0.00;0.00;;;12.60;99.90;;;;;;5029059;28;20058;-85
2023/12/11 10:18:12;;;;;;;0.00;0.00;;;12.60;99.90;;;;;;5045424;28;20541;-84
2023/12/11 10:20:40;;;;;;;0.00;0.00;;;12.60;99.90;;;;;;5029075;28;20033;-85
2023/12/11 10:23:14;;;;;;;0.30;0.30;;;12.60;99.90;;;;;;5043077;28;20056;-85
2023/12/11 10:25:42;;;;;;;0.10;0.10;;;12.60;99.90;;;;;;5029467;28;20024;-85
2023/12/11 10:28:10;;;;;;;0.00;0.00;;;12.60;99.90;;;;;;5030013;28;20060;-84
2023/12/11 10:31:00;;;;;;;0.00;0.00;;;12.70;99.90;;;;;;5028735;28;20066;-84
2023/12/11 10:33:27;;;;;;;0.00;0.00;;;12.70;99.90;;;;;;5029154;28;20044;-84
2023/12/11 10:36:12;;;;;;;0.00;0.00;;;12.70;99.90;;;;;;5048142;28;20523;-84
2023/12/11 10:38:39;;;;;;;0.00;0.00;;;12.70;99.90;;;;;;5060673;28;20094;-83
2023/12/11 10:41:05;;;;;;;0.00;0.00;;;12.70;99.90;;;;;;5047080;28;20551;-84
2023/12/11 10:43:41;;;;;;;0.10;0.10;;;12.70;99.90;;;;;;5027038;28;20128;-85
2023/12/11 10:46:07;;;;;;;;;;;12.80;99.90;;;;;;5029153;28;20136;-85
2023/12/11 10:48:34;;;;;;;0.00;0.00;;;12.80;99.90;;;;;;5028184;28;19944;-84
2023/12/11 10:51:00;;;;;;;;;;;12.80;99.90;;;;;;5047905;28;21294;-83
2023/12/11 10:53:26;;;;;;;0.05;0.05;;;12.80;99.90;;;;;;5047103;28;19975;-83
2023/12/11 10:55:53;;;;;;;0.00;0.00;;;12.80;99.90;;;;;;5062472;28;20644;-83
2023/12/11 10:58:19;;;;;;;;;;;12.80;99.90;;;;;;5047405;28;20469;-82
2023/12/11 11:00:45;;;;;;;0.00;0.00;;;12.80;99.90;;;;;;5046229;28;19912;-83
2023/12/11 11:03:12;;;;;;;0.00;0.00;;;12.80;99.90;;;;;;5045878;28;20079;-83
2023/12/11 11:05:38;;;;;;;0.00;0.00;;;12.80;99.90;;;;;;5045465;28;20025;-83
2023/12/11 11:08:22;;;;;;;0.00;0.00;;;12.80;99.90;;;;;;5028373;28;20025;-82
2023/12/11 11:11:10;;;;;;;0.13;0.13;;;12.80;99.90;;;;;;5046227;28;20420;-82
2023/12/11 11:13:59;;;;;;;0.00;0.00;;;12.80;99.90;;;;;;5045024;28;20459;-82
2023/12/11 11:16:52;;;;;;;0.10;0.10;;;12.80;99.90;;;;;;5045717;28;20025;-82
2023/12/11 11:19:18;;;;;;;0.10;0.10;;;12.80;99.90;;;;;;5027878;28;20029;-83
2023/12/11 11:22:00;;;;;;;0.00;0.00;;;12.80;99.90;;;;;;5043666;28;20029;-83
2023/12/11 11:24:29;;;;;;;0.00;0.00;;;12.80;99.90;;;;;;5038890;28;20267;-84
2023/12/11 11:26:54;;;;;;;0.10;0.10;;;12.80;99.90;;;;;;5046056;28;20021;-82
2023/12/11 11:29:41;;;;;;;0.00;0.00;;;12.70;99.90;;;;;;5048514;28;20029;-82
2023/12/11 11:32:07;;;;;;;0.00;0.00;;;12.70;99.90;;;;;;5028706;28;20043;-82
2023/12/11 11:34:43;;;;;;;0.10;0.10;;;12.80;99.90;;;;;;5049721;28;20033;-82
2023/12/11 11:37:20;;;;;;;0.10;0.10;;;12.80;99.90;;;;;;5050143;28;20040;-82
2023/12/11 11:40:01;;;;;;;0.03;0.03;;;12.80;99.90;;;;;;5049293;28;20090;-82
2023/12/11 11:42:32;;;;;;;0.00;0.00;;;12.80;99.90;;;;;;5026558;28;20051;-81
2023/12/11 11:45:00;;;;;;;0.00;0.00;;;12.80;99.90;;;;;;5049779;28;20021;-82
2023/12/11 11:47:27;;;;;;;0.20;0.20;;;12.80;99.90;;;;;;5031918;28;20029;-82
2023/12/11 11:49:55;;;;;;;;;;;12.90;99.90;;;;;;5031869;28;20752;-82
2023/12/11 11:52:29;;;;;;;0.00;0.00;;;12.90;99.90;;;;;;5031407;28;19909;-82
2023/12/11 11:55:07;;;;;;;0.00;0.00;;;12.90;99.90;;;;;;5050636;28;20068;-82
2023/12/11 11:57:33;;;;;;;0.00;0.00;;;12.90;99.90;;;;;;5050193;28;20029;-82
2023/12/11 11:59:59;;;;;;;0.00;0.00;;;12.90;99.90;;;;;;5050029;28;20028;-82
2023/12/11 12:02:27;;;;;;;0.00;0.00;;;12.80;99.90;;;;;;5033331;28;20143;-82
2023/12/11 12:04:53;;;;;;;0.00;0.00;;;12.90;99.90;;;;;;5049349;28;20029;-83
2023/12/11 12:07:19;;;;;;;0.10;0.10;;;12.80;99.90;;;;;;5049967;28;20024;-82
2023/12/11 12:09:51;;;;;;;0.00;0.00;;;12.80;99.90;;;;;;5049504;28;20703;-82
2023/12/11 12:12:16;;;;;;;0.08;0.08;;;12.80;99.90;;;;;;5049702;28;20040;-82
2023/12/11 12:14:42;;;;;;;0.00;0.00;;;12.80;99.90;;;;;;5032006;28;20037;-82
2023/12/11 12:17:11;;;;;;;0.00;0.00;;;12.90;99.90;;;;;;5049515;28;20033;-82
2023/12/11 12:19:37;;;;;;;0.10;0.10;;;12.80;99.90;;;;;;5048734;28;20048;-83
2023/12/11 12:22:03;;;;;;;0.00;0.00;;;12.90;99.90;;;;;;5046685;28;20026;-81
2023/12/11 12:24:30;;;;;;;0.00;0.00;;;12.80;99.90;;;;;;5049321;28;20032;-83
2023/12/11 12:26:59;;;;;;;0.00;0.00;;;12.90;99.90;;;;;;5034954;28;20028;-82
2023/12/11 12:29:26;;;;;;;0.00;0.00;;;12.90;99.90;;;;;;5030867;28;20491;-83
2023/12/11 12:31:52;;;;;;;0.00;0.00;;;12.80;99.90;;;;;;5029531;28;20041;-83
2023/12/11 12:34:18;;;;;;;0.00;0.00;;;12.80;99.90;;;;;;5049026;28;20082;-82
2023/12/11 12:36:45;;;;;;;0.00;0.00;;;12.80;99.90;;;;;;5048689;28;20153;-83
2023/12/11 12:39:12;;;;;;;0.00;0.00;;;12.80;99.90;;;;;;5048211;28;20519;-84
2023/12/11 12:41:38;;;;;;;0.00;0.00;;;12.90;99.90;;;;;;5048622;28;20040;-83
2023/12/11 12:44:04;;;;;;;0.17;0.17;;;12.80;99.90;;;;;;5048539;28;20025;-81
2023/12/11 12:46:40;;;;;;;0.00;0.00;;;12.80;99.90;;;;;;5048622;28;20051;-83